ミラノ/マルペンサ の空港の天気 - METARとTAF

ミラノ・マルペンサ国際空港 ( LIMC / MXP ) - イタリア ミラノ
飛行場実況気象(Metar)
観測時間05/26 21:20 CEST (05/26 19:20 UTC)
風向・風速東南東 1m/s
視程10km以上
天気現象
なし
気温19℃
湿度60%
気圧1025hPa
METARLIMC 261920Z 12002KT CAVOK 19/11 Q1025 NOSIG
過去の天気等 Google飛行場航空写真 Wunderground天気予報

過去48時間のMETAR

飛行場予報(TAF)
発表時間: 5/26 19:00 CEST (5/26 17:00 UTC)
予報対象時間: 26日20時 CEST ~ 28日2時 CEST
風向・風速東 5m/s
視程10km以上
なし
26日22時 CEST ~ 26日24時 CEST に徐々に
風向・風速不定 3m/s
TAF LIMC 261700Z 2618/2724 10010KT CAVOK
BECMG 2620/2622 VRB05KT